Latest Coastal Weather Observations for Darwin Harbour

IDD60701

Issued at 3:41 pm CST Thursday 23 January 2020 (issued every 10 minutes, with the page automatically refreshed every 10 minutes)

About coastal observations | Map of coastal stations | Coastal observations for NT | Marine services | Other Formats
Station Details ID: 014072 Name: DARWIN NTC AWS Lat: -12.47 Lon: 130.85 Height: 0.0 m
Data from the previous 72 hours. | See also: Recent months for locations in Northern Territory
Date/Time
CST
Wind Sea
Height
m
Swell Vis
km
Cloud Weather Temp
°C
Press
hPa
Rain since
9am
mm
Dir  Spd
kts
Gust
kts
Height
m
Period
s
Dir
23/03:30pm W 13 17 - - - - - - - 30.6 1004.9 -
23/03:00pm W 14 19 - - - - - - - 30.8 1005.2 -
23/02:30pm W 12 17 - - - - - - - 30.6 1005.5 -
23/02:00pm W 11 17 - - - - - - - 30.8 1006.1 -
23/01:30pm W 12 18 - - - - - - - 30.7 1006.3 -
23/01:00pm W 13 18 - - - - - - - 30.7 1006.6 -
23/12:30pm W 10 15 - - - - - - - 30.4 1007.3 -
23/12:00pm W 12 16 - - - - - - - 30.4 1007.7 -
23/11:30am W 12 17 - - - - - - - 30.0 1007.7 -
23/11:00am W 9 13 - - - - - - - 29.9 1008.2 -
23/10:30am W 7 12 - - - - - - - 29.8 1008.4 -
23/10:00am WSW 2 5 - - - - - - - 28.4 1008.4 -
23/09:30am SW 3 5 - - - - - - - 27.8 1008.6 -
23/09:00am SW 3 4 - - - - - - - 27.6 1008.3 -
23/08:30am WSW 6 9 - - - - - - - 27.2 1008.2 -
23/08:00am WSW 5 7 - - - - - - - 27.4 1007.9 -
23/07:30am W 5 7 - - - - - - - 27.2 1007.8 -
23/07:00am W 8 10 - - - - - - - 27.1 1007.2 -
23/06:30am W 9 13 - - - - - - - 27.0 1006.6 -
23/06:00am W 9 12 - - - - - - - 26.5 1006.2 -
23/05:30am W 8 12 - - - - - - - 27.0 1005.9 -
23/05:00am WSW 12 16 - - - - - - - 27.1 1005.8 -
23/04:30am W 14 19 - - - - - - - 28.6 1005.9 -
23/04:00am W 8 12 - - - - - - - 29.1 1006.0 -
23/03:30am W 9 12 - - - - - - - 29.1 1006.0 -
23/03:00am W 11 14 - - - - - - - 29.0 1006.3 -
23/02:30am W 12 17 - - - - - - - 29.1 1006.7 -
23/02:00am W 10 13 - - - - - - - 29.0 1007.0 -
23/01:30am W 7 9 - - - - - - - 28.7 1007.1 -
23/01:00am W 7 11 - - - - - - - 28.9 1007.6 -
23/12:30am W 7 9 - - - - - - - 28.8 1007.8 -
23/12:00am W 9 13 - - - - - - - 29.1 1008.3 -
 
Date/Time
CST
Wind Sea
Height
m
Swell Vis
km
Cloud Weather Temp
°C
Press
hPa
Rain since
9am
mm
Dir  Spd
kts
Gust
kts
Height
m
Period
s
Dir
22/11:30pm WNW 8 11 - - - - - - - 28.9 1008.1 -
22/11:00pm W 6 10 - - - - - - - 28.6 1008.3 -
22/10:30pm WNW 2 4 - - - - - - - 27.9 1008.4 -
22/10:00pm W 4 7 - - - - - - - 28.2 1007.8 -
22/09:30pm WNW 2 3 - - - - - - - 27.9 1007.8 -
22/09:00pm W 3 6 - - - - - - - 27.4 1007.4 -
22/08:30pm WNW 5 8 - - - - - - - 27.0 1007.2 -
22/08:00pm NW 2 3 - - - - - - - 26.5 1007.0 -
22/07:30pm NNE 1 3 - - - - - - - 25.3 1007.0 -
22/07:00pm NW 1 2 - - - - - - - 25.3 1006.7 -
22/06:30pm N 2 4 - - - - - - - 25.0 1006.5 -
22/06:00pm WNW 6 10 - - - - - - - 25.2 1006.8 -
22/05:30pm NNE 3 6 - - - - - - - 24.6 1006.7 -
22/05:00pm WNW 2 5 - - - - - - - 24.9 1006.9 -
22/04:30pm SW 11 14 - - - - - - - 24.7 1007.1 -
22/04:00pm SW 12 15 - - - - - - - 25.9 1007.6 -
22/03:30pm SW 13 18 - - - - - - - 24.3 1007.5 -
22/03:00pm WSW 6 8 - - - - - - - 24.7 1008.2 -
22/02:30pm NE 2 6 - - - - - - - 24.9 1008.4 -
22/02:00pm NE 3 9 - - - - - - - 24.6 1008.5 -
22/01:30pm W 1 3 - - - - - - - 25.0 1009.4 -
22/01:00pm W 3 6 - - - - - - - 25.1 1009.8 -
22/12:30pm NW 2 6 - - - - - - - 24.8 1009.6 -
22/12:00pm WSW 12 17 - - - - - - - 24.1 1010.8 -
22/11:30am NW 6 25 - - - - - - - 24.8 1011.3 -
22/11:00am W 3 14 - - - - - - - 26.0 1009.9 -
22/10:30am W 5 12 - - - - - - - 25.7 1009.7 -
22/10:00am NE 4 13 - - - - - - - 24.6 1009.7 -
22/09:30am E 5 13 - - - - - - - 25.3 1009.5 -
22/09:00am NE 5 11 - - - - - - - 25.6 1009.6 -
22/08:30am ENE 6 11 - - - - - - - 24.5 1009.3 -
22/08:00am NNE 3 8 - - - - - - - 25.2 1008.6 -
22/07:30am SW 4 17 - - - - - - - 25.6 1009.3 -
22/07:00am ENE 5 9 - - - - - - - 25.7 1008.3 -
22/06:30am NW 2 6 - - - - - - - 25.6 1008.2 -
22/06:00am SW 13 18 - - - - - - - 24.9 1008.4 -
22/05:30am WNW 5 14 - - - - - - - 25.2 1008.0 -
22/05:00am W 10 15 - - - - - - - 28.2 1007.6 -
22/04:30am W 8 11 - - - - - - - 27.5 1007.3 -
22/04:00am W 15 28 - - - - - - - 25.3 1008.2 -
22/03:30am WNW 10 21 - - - - - - - 27.1 1007.6 -
22/03:00am W 14 21 - - - - - - - 27.0 1007.8 -
22/02:30am WNW 10 19 - - - - - - - 27.5 1008.1 -
22/02:00am W 13 19 - - - - - - - 27.4 1008.2 -
22/01:30am W 11 20 - - - - - - - 26.9 1008.6 -
22/01:00am W 17 25 - - - - - - - 26.4 1009.2 -
22/12:36am W 15 28 - - - - - - - 25.8 1009.8 -
22/12:30am W 14 21 - - - - - - - 26.6 1009.6 -
22/12:02am W 17 31 - - - - - - - 24.6 1010.1 -
22/12:00am W 14 30 - - - - - - - 25.2 1010.1 -
 
Date/Time
CST
Wind Sea
Height
m
Swell Vis
km
Cloud Weather Temp
°C
Press
hPa
Rain since
9am
mm
Dir  Spd
kts
Gust
kts
Height
m
Period
s
Dir
21/11:58pm W 11 30 - - - - - - - 25.1 1010.1 -
21/11:30pm W 11 15 - - - - - - - 28.3 1009.4 -
21/11:11pm W 16 26 - - - - - - - 28.0 1009.7 -
21/11:00pm W 19 27 - - - - - - - 28.6 1009.7 -
21/10:33pm W 15 39 - - - - - - - 28.7 1009.6 -
21/10:30pm W 14 20 - - - - - - - 28.6 1009.3 -
21/10:00pm W 18 31 - - - - - - - 28.5 1009.0 -
21/09:58pm W 17 30 - - - - - - - 28.4 1008.9 -
21/09:30pm W 17 27 - - - - - - - 26.6 1008.7 -
21/09:18pm W 15 25 - - - - - - - 26.0 1009.0 -
21/09:00pm W 21 30 - - - - - - - 25.7 1009.0 -
21/08:50pm W 22 38 - - - - - - - 24.5 1009.1 -
21/08:47pm W 19 38 - - - - - - - 25.1 1009.1 -
21/08:46pm W 17 37 - - - - - - - 27.9 1009.0 -
21/08:30pm WNW 15 19 - - - - - - - 29.5 1008.4 -
21/08:00pm W 14 20 - - - - - - - 28.9 1008.0 -
21/07:30pm W 16 23 - - - - - - - 28.1 1007.9 -
21/07:01pm W 15 28 - - - - - - - 27.6 1007.8 -
21/07:00pm W 14 28 - - - - - - - 27.6 1007.9 -
21/06:30pm W 18 29 - - - - - - - 28.3 1007.5 -
21/06:25pm W 15 29 - - - - - - - 28.4 1007.4 -
21/06:00pm WNW 12 18 - - - - - - - 29.1 1006.8 -
21/05:30pm W 12 17 - - - - - - - 28.8 1007.0 -
21/05:00pm W 10 15 - - - - - - - 28.4 1007.2 -
21/04:30pm W 13 21 - - - - - - - 26.7 1007.5 -
21/04:20pm W 15 29 - - - - - - - 27.0 1007.6 -
21/04:00pm WNW 9 17 - - - - - - - 28.3 1007.0 -
21/03:30pm W 11 18 - - - - - - - 27.5 1007.5 -
21/03:00pm W 15 21 - - - - - - - 26.4 1008.2 -
21/02:50pm W 14 33 - - - - - - - 24.4 1008.7 -
21/02:48pm W 11 31 - - - - - - - 26.1 1008.6 -
21/02:30pm NW 7 12 - - - - - - - 29.4 1007.9 -
21/02:00pm NW 5 14 - - - - - - - 29.3 1008.0 -
21/01:30pm N 7 13 - - - - - - - 29.4 1008.1 -
21/01:00pm WNW 5 12 - - - - - - - 29.1 1008.8 -
21/12:30pm W 8 13 - - - - - - - 28.8 1009.4 -
21/12:00pm WNW 7 14 - - - - - - - 28.4 1009.8 -
21/11:30am NW 5 13 - - - - - - - 27.5 1010.5 -
21/11:00am NNW 5 12 - - - - - - - 26.6 1010.9 -
21/10:30am WNW 5 14 - - - - - - - 25.8 1011.0 -
21/10:00am WNW 16 27 - - - - - - - 25.6 1011.5 -
21/09:38am WNW 15 37 - - - - - - - 23.5 1011.7 -
21/09:30am WNW 9 37 - - - - - - - 26.6 1011.9 -
21/09:00am NNW 7 13 - - - - - - - 27.8 1010.6 -
21/08:30am WNW 5 11 - - - - - - - 28.1 1010.1 -
21/08:00am WNW 4 11 - - - - - - - 28.3 1009.8 -
21/07:30am WNW 5 11 - - - - - - - 27.7 1009.4 -
21/07:00am NNW 6 13 - - - - - - - 27.4 1009.0 -
21/06:30am N 5 9 - - - - - - - 27.4 1008.6 -
21/06:00am NNW 4 8 - - - - - - - 27.6 1007.9 -
21/05:30am N 6 8 - - - - - - - 27.3 1008.0 -
21/05:00am NNE 7 11 - - - - - - - 25.3 1007.6 -
21/04:30am NNW 9 14 - - - - - - - 24.8 1007.6 -
21/04:06am W 13 26 - - - - - - - 23.7 1007.7 -
21/04:00am WSW 22 33 - - - - - - - 23.1 1008.3 -
21/03:57am WSW 23 33 - - - - - - - 23.3 1008.2 -
21/03:50am W 19 29 - - - - - - - 24.9 1007.7 -
21/03:44am NW 8 29 - - - - - - - 26.9 1007.6 -
21/03:30am NW 5 7 - - - - - - - 28.5 1007.0 -
21/03:00am NW 6 10 - - - - - - - 27.2 1007.5 -
21/02:30am WNW 5 11 - - - - - - - 29.3 1007.4 -
21/02:00am WNW 10 13 - - - - - - - 29.4 1008.0 -
21/01:30am WNW 5 10 - - - - - - - 28.9 1008.6 -
21/01:00am NW 4 6 - - - - - - - 28.3 1009.0 -
21/12:30am NW 4 7 - - - - - - - 27.5 1008.8 -
21/12:00am WNW 4 7 - - - - - - - 26.8 1009.1 -
 
Date/Time
CST
Wind Sea
Height
m
Swell Vis
km
Cloud Weather Temp
°C
Press
hPa
Rain since
9am
mm
Dir  Spd
kts
Gust
kts
Height
m
Period
s
Dir
20/11:30pm WNW 13 22 - - - - - - - 26.9 1009.5 -
20/11:20pm NNW 6 25 - - - - - - - 27.4 1009.9 -
20/11:00pm NNE 4 8 - - - - - - - 26.9 1009.5 -
20/10:30pm W 4 7 - - - - - - - 27.2 1009.6 -
20/10:00pm NW 3 6 - - - - - - - 27.2 1009.0 -
20/09:30pm W 11 22 - - - - - - - 26.9 1009.1 -
20/09:14pm WSW 11 31 - - - - - - - 25.3 1008.8 -
20/09:13pm WSW 10 31 - - - - - - - 26.9 1008.8 -
20/09:00pm W 7 10 - - - - - - - 29.4 1008.4 -
20/08:30pm WNW 7 11 - - - - - - - 28.6 1008.2 -
20/08:00pm W 8 12 - - - - - - - 29.0 1007.7 -
20/07:30pm W 8 11 - - - - - - - 28.9 1007.2 -
20/07:00pm W 9 12 - - - - - - - 28.9 1006.8 -
20/06:30pm W 9 12 - - - - - - - 28.8 1006.9 -
20/06:00pm NW 3 5 - - - - - - - 27.9 1006.8 -
20/05:30pm WSW 7 9 - - - - - - - 28.0 1006.7 -
20/05:00pm WSW 9 11 - - - - - - - 27.6 1006.4 -
20/04:30pm W 5 24 - - - - - - - 26.4 1006.7 -
20/04:00pm WSW 1 2 - - - - - - - 27.3 1006.3 -

Other formats

Comma delimited format used in spreadsheet applications
http://www.bom.gov.au/fwo/IDD60701/IDD60701.95122.axf

JavaScript Object Notation format (JSON) in row-major order
http://www.bom.gov.au/fwo/IDD60701/IDD60701.95122.json

Data quality

Most of these data are generated automatically and are frequently updated. Quality checks on data are not normally performed. It is possible for incorrect values to appear. Refer to information at About Latest Weather Observations and please check the disclaimer before using these data.